sensor_id;sensor_type;location;lat;lon;timestamp;pressure;altitude;pressure_sealevel;temperature;humidity
21902;BME280;11115;46.038;14.612;2023-03-31T00:01:50;98473.75;;;10.61;100.00
21902;BME280;11115;46.038;14.612;2023-03-31T00:04:28;98478.22;;;10.71;100.00
21902;BME280;11115;46.038;14.612;2023-03-31T00:07:01;98478.94;;;10.76;100.00
21902;BME280;11115;46.038;14.612;2023-03-31T00:09:35;98466.97;;;10.67;100.00
21902;BME280;11115;46.038;14.612;2023-03-31T00:12:05;98469.84;;;10.62;100.00
21902;BME280;11115;46.038;14.612;2023-03-31T00:14:35;98477.53;;;10.65;100.00
21902;BME280;11115;46.038;14.612;2023-03-31T00:17:09;98468.22;;;10.61;100.00
21902;BME280;11115;46.038;14.612;2023-03-31T00:19:39;98472.31;;;10.63;100.00
21902;BME280;11115;46.038;14.612;2023-03-31T00:22:20;98480.31;;;10.51;100.00
21902;BME280;11115;46.038;14.612;2023-03-31T00:24:56;98469.66;;;10.45;100.00
21902;BME280;11115;46.038;14.612;2023-03-31T00:27:27;98473.34;;;10.54;100.00
21902;BME280;11115;46.038;14.612;2023-03-31T00:29:58;98470.25;;;10.55;100.00
21902;BME280;11115;46.038;14.612;2023-03-31T00:32:26;98463.28;;;10.58;100.00
21902;BME280;11115;46.038;14.612;2023-03-31T00:35:12;98458.59;;;10.45;100.00
21902;BME280;11115;46.038;14.612;2023-03-31T00:37:44;98469.25;;;10.38;100.00
21902;BME280;11115;46.038;14.612;2023-03-31T00:40:18;98465.03;;;10.40;100.00
21902;BME280;11115;46.038;14.612;2023-03-31T00:42:52;98457.88;;;10.39;100.00
21902;BME280;11115;46.038;14.612;2023-03-31T00:45:34;98465.84;;;10.41;100.00
21902;BME280;11115;46.038;14.612;2023-03-31T00:48:16;98458.50;;;10.36;100.00
21902;BME280;11115;46.038;14.612;2023-03-31T00:50:58;98451.31;;;10.35;100.00
21902;BME280;11115;46.038;14.612;2023-03-31T00:53:33;98451.84;;;10.37;100.00
21902;BME280;11115;46.038;14.612;2023-03-31T00:56:12;98446.31;;;10.37;100.00
21902;BME280;11115;46.038;14.612;2023-03-31T00:58:43;98443.97;;;10.44;100.00
21902;BME280;11115;46.038;14.612;2023-03-31T01:01:22;98429.19;;;10.49;100.00
21902;BME280;11115;46.038;14.612;2023-03-31T01:04:06;98410.56;;;10.41;100.00
21902;BME280;11115;46.038;14.612;2023-03-31T01:06:48;98345.25;;;9.90;100.00
21902;BME280;11115;46.038;14.612;2023-03-31T01:09:29;98410.28;;;10.28;100.00
21902;BME280;11115;46.038;14.612;2023-03-31T01:12:10;98407.50;;;10.28;100.00
21902;BME280;11115;46.038;14.612;2023-03-31T01:14:51;98415.38;;;10.21;100.00
21902;BME280;11115;46.038;14.612;2023-03-31T01:17:21;98412.53;;;10.26;100.00
21902;BME280;11115;46.038;14.612;2023-03-31T01:44:00;98385.25;;;10.20;100.00
21902;BME280;11115;46.038;14.612;2023-03-31T01:46:40;98380.38;;;10.30;100.00
21902;BME280;11115;46.038;14.612;2023-03-31T01:55:58;98359.19;;;10.26;100.00
21902;BME280;11115;46.038;14.612;2023-03-31T01:58:42;98356.59;;;10.43;100.00
21902;BME280;11115;46.038;14.612;2023-03-31T02:01:45;98350.34;;;10.38;100.00
21902;BME280;11115;46.038;14.612;2023-03-31T02:04:42;98339.91;;;10.21;100.00
21902;BME280;11115;46.038;14.612;2023-03-31T02:07:23;98341.97;;;10.15;100.00
21902;BME280;11115;46.038;14.612;2023-03-31T02:09:59;98343.59;;;10.16;100.00
21902;BME280;11115;46.038;14.612;2023-03-31T02:12:36;98337.38;;;10.11;100.00
21902;BME280;11115;46.038;14.612;2023-03-31T02:15:11;98340.47;;;10.23;100.00
21902;BME280;11115;46.038;14.612;2023-03-31T02:17:50;98336.63;;;10.32;100.00
21902;BME280;11115;46.038;14.612;2023-03-31T02:20:26;98345.06;;;10.27;100.00
21902;BME280;11115;46.038;14.612;2023-03-31T02:23:03;98332.22;;;10.18;100.00
21902;BME280;11115;46.038;14.612;2023-03-31T02:25:48;98292.03;;;9.98;100.00
21902;BME280;11115;46.038;14.612;2023-03-31T02:28:28;98291.19;;;10.11;100.00
21902;BME280;11115;46.038;14.612;2023-03-31T02:34:06;98306.03;;;10.15;100.00
21902;BME280;11115;46.038;14.612;2023-03-31T02:36:55;98306.22;;;10.19;100.00
21902;BME280;11115;46.038;14.612;2023-03-31T02:39:34;98299.19;;;10.26;100.00
21902;BME280;11115;46.038;14.612;2023-03-31T02:42:07;98293.34;;;10.14;100.00
21902;BME280;11115;46.038;14.612;2023-03-31T02:44:41;98293.97;;;10.11;100.00
21902;BME280;11115;46.038;14.612;2023-03-31T02:47:29;98295.72;;;10.07;100.00
21902;BME280;11115;46.038;14.612;2023-03-31T02:50:07;98304.91;;;10.02;100.00
21902;BME280;11115;46.038;14.612;2023-03-31T02:53:02;98295.28;;;10.00;100.00
21902;BME280;11115;46.038;14.612;2023-03-31T03:01:50;98293.84;;;10.02;100.00
21902;BME280;11115;46.038;14.612;2023-03-31T03:13:46;98302.47;;;10.01;100.00
21902;BME280;11115;46.038;14.612;2023-03-31T03:16:52;98298.09;;;9.86;100.00
21902;BME280;11115;46.038;14.612;2023-03-31T03:19:27;98290.41;;;9.83;100.00
21902;BME280;11115;46.038;14.612;2023-03-31T03:22:09;98303.00;;;9.76;100.00
21902;BME280;11115;46.038;14.612;2023-03-31T03:24:37;98290.75;;;9.68;100.00
21902;BME280;11115;46.038;14.612;2023-03-31T03:27:11;98299.44;;;9.75;100.00
21902;BME280;11115;46.038;14.612;2023-03-31T03:29:41;98259.94;;;9.61;100.00
21902;BME280;11115;46.038;14.612;2023-03-31T03:32:16;98289.81;;;9.72;100.00
21902;BME280;11115;46.038;14.612;2023-03-31T03:34:55;98279.16;;;9.80;100.00
21902;BME280;11115;46.038;14.612;2023-03-31T03:37:44;98278.94;;;9.90;100.00
21902;BME280;11115;46.038;14.612;2023-03-31T03:40:14;98250.31;;;9.72;100.00
21902;BME280;11115;46.038;14.612;2023-03-31T03:42:46;98278.03;;;9.81;100.00
21902;BME280;11115;46.038;14.612;2023-03-31T03:45:16;98280.59;;;9.77;100.00
21902;BME280;11115;46.038;14.612;2023-03-31T03:47:50;98274.25;;;9.90;100.00
21902;BME280;11115;46.038;14.612;2023-03-31T03:50:20;98277.63;;;9.87;100.00
21902;BME280;11115;46.038;14.612;2023-03-31T03:53:04;98262.38;;;9.76;100.00
21902;BME280;11115;46.038;14.612;2023-03-31T03:55:49;98237.97;;;9.56;100.00
21902;BME280;11115;46.038;14.612;2023-03-31T03:58:20;98252.38;;;9.66;100.00
21902;BME280;11115;46.038;14.612;2023-03-31T04:00:59;98256.88;;;9.62;100.00
21902;BME280;11115;46.038;14.612;2023-03-31T04:03:30;98249.13;;;9.64;100.00
21902;BME280;11115;46.038;14.612;2023-03-31T04:05:59;98255.44;;;9.79;100.00
21902;BME280;11115;46.038;14.612;2023-03-31T04:08:33;98244.56;;;9.82;100.00
21902;BME280;11115;46.038;14.612;2023-03-31T04:11:02;98245.38;;;9.83;100.00
21902;BME280;11115;46.038;14.612;2023-03-31T04:13:46;98244.41;;;9.65;100.00
21902;BME280;11115;46.038;14.612;2023-03-31T04:16:31;98238.88;;;9.65;100.00
21902;BME280;11115;46.038;14.612;2023-03-31T04:19:00;98242.75;;;9.78;100.00
21902;BME280;11115;46.038;14.612;2023-03-31T04:21:38;98227.50;;;9.80;100.00
21902;BME280;11115;46.038;14.612;2023-03-31T04:24:13;98233.06;;;9.66;100.00
21902;BME280;11115;46.038;14.612;2023-03-31T04:26:49;98235.59;;;9.77;100.00
21902;BME280;11115;46.038;14.612;2023-03-31T04:29:24;98231.06;;;9.81;100.00
21902;BME280;11115;46.038;14.612;2023-03-31T04:31:55;98214.94;;;9.60;100.00
21902;BME280;11115;46.038;14.612;2023-03-31T04:34:25;98229.25;;;9.62;100.00
21902;BME280;11115;46.038;14.612;2023-03-31T04:37:03;98234.38;;;9.55;100.00
21902;BME280;11115;46.038;14.612;2023-03-31T04:39:39;98236.50;;;9.72;100.00
21902;BME280;11115;46.038;14.612;2023-03-31T04:42:22;98222.41;;;9.73;100.00
21902;BME280;11115;46.038;14.612;2023-03-31T04:44:50;98225.38;;;9.63;100.00
21902;BME280;11115;46.038;14.612;2023-03-31T04:47:21;98222.19;;;9.70;100.00
21902;BME280;11115;46.038;14.612;2023-03-31T04:49:51;98222.41;;;9.73;100.00
21902;BME280;11115;46.038;14.612;2023-03-31T04:52:20;98209.72;;;9.72;100.00
21902;BME280;11115;46.038;14.612;2023-03-31T04:54:48;98156.47;;;9.44;100.00
21902;BME280;11115;46.038;14.612;2023-03-31T04:57:34;98211.53;;;9.77;100.00
21902;BME280;11115;46.038;14.612;2023-03-31T05:00:08;98209.31;;;9.65;100.00
21902;BME280;11115;46.038;14.612;2023-03-31T05:02:46;98213.00;;;9.61;100.00
21902;BME280;11115;46.038;14.612;2023-03-31T05:05:28;98209.59;;;9.64;100.00
21902;BME280;11115;46.038;14.612;2023-03-31T05:08:07;98202.53;;;9.85;100.00
21902;BME280;11115;46.038;14.612;2023-03-31T05:10:45;98206.50;;;9.79;100.00
21902;BME280;11115;46.038;14.612;2023-03-31T05:13:15;98197.72;;;9.77;100.00
21902;BME280;11115;46.038;14.612;2023-03-31T05:15:54;98192.69;;;9.79;100.00
21902;BME280;11115;46.038;14.612;2023-03-31T05:18:41;98193.50;;;9.80;100.00
21902;BME280;11115;46.038;14.612;2023-03-31T05:21:20;98192.69;;;9.79;100.00
21902;BME280;11115;46.038;14.612;2023-03-31T05:24:03;98190.44;;;9.81;100.00
21902;BME280;11115;46.038;14.612;2023-03-31T05:26:31;98204.00;;;9.69;100.00
21902;BME280;11115;46.038;14.612;2023-03-31T05:29:14;98196.09;;;9.62;100.00
21902;BME280;11115;46.038;14.612;2023-03-31T05:31:47;98204.94;;;9.64;100.00
21902;BME280;11115;46.038;14.612;2023-03-31T05:34:23;98199.50;;;9.59;100.00
21902;BME280;11115;46.038;14.612;2023-03-31T05:37:05;98206.31;;;9.76;100.00
21902;BME280;11115;46.038;14.612;2023-03-31T05:39:35;98195.16;;;9.81;100.00
21902;BME280;11115;46.038;14.612;2023-03-31T05:42:10;98202.63;;;9.80;100.00
21902;BME280;11115;46.038;14.612;2023-03-31T05:44:43;98182.00;;;9.64;100.00
21902;BME280;11115;46.038;14.612;2023-03-31T05:47:19;98181.97;;;9.78;100.00
21902;BME280;11115;46.038;14.612;2023-03-31T05:49:51;98185.50;;;9.92;100.00
21902;BME280;11115;46.038;14.612;2023-03-31T05:52:27;98181.34;;;9.81;100.00
21902;BME280;11115;46.038;14.612;2023-03-31T05:55:13;98180.44;;;9.71;100.00
21902;BME280;11115;46.038;14.612;2023-03-31T05:57:58;98181.28;;;9.72;100.00
21902;BME280;11115;46.038;14.612;2023-03-31T06:00:30;98179.50;;;9.76;100.00
21902;BME280;11115;46.038;14.612;2023-03-31T06:03:00;98177.06;;;9.74;100.00
21902;BME280;11115;46.038;14.612;2023-03-31T06:05:47;98176.03;;;9.84;100.00
21902;BME280;11115;46.038;14.612;2023-03-31T06:08:16;98168.94;;;9.92;100.00
21902;BME280;11115;46.038;14.612;2023-03-31T06:10:55;98166.50;;;9.90;100.00
21902;BME280;11115;46.038;14.612;2023-03-31T06:13:24;98178.41;;;9.99;100.00
21902;BME280;11115;46.038;14.612;2023-03-31T06:15:59;98171.88;;;9.95;100.00
21902;BME280;11115;46.038;14.612;2023-03-31T06:18:45;98153.22;;;10.01;100.00
21902;BME280;11115;46.038;14.612;2023-03-31T06:21:24;98139.09;;;10.02;100.00
21902;BME280;11115;46.038;14.612;2023-03-31T06:23:57;98151.59;;;10.00;100.00
21902;BME280;11115;46.038;14.612;2023-03-31T06:26:31;98154.88;;;10.02;100.00
21902;BME280;11115;46.038;14.612;2023-03-31T06:29:04;98148.09;;;10.08;100.00
21902;BME280;11115;46.038;14.612;2023-03-31T06:31:46;98144.84;;;10.06;100.00
21902;BME280;11115;46.038;14.612;2023-03-31T06:34:15;98140.94;;;10.07;100.00
21902;BME280;11115;46.038;14.612;2023-03-31T06:36:47;98146.03;;;10.14;100.00
21902;BME280;11115;46.038;14.612;2023-03-31T06:39:18;98156.13;;;10.18;100.00
21902;BME280;11115;46.038;14.612;2023-03-31T06:41:52;98141.59;;;10.26;100.00
21902;BME280;11115;46.038;14.612;2023-03-31T06:44:27;98127.78;;;10.26;100.00
21902;BME280;11115;46.038;14.612;2023-03-31T06:47:07;98127.66;;;10.18;100.00
21902;BME280;11115;46.038;14.612;2023-03-31T06:49:34;98132.34;;;10.31;100.00
21902;BME280;11115;46.038;14.612;2023-03-31T06:52:06;98139.03;;;10.16;100.00
21902;BME280;11115;46.038;14.612;2023-03-31T06:54:39;98141.94;;;10.11;100.00
21902;BME280;11115;46.038;14.612;2023-03-31T06:57:10;98144.56;;;10.16;100.00
21902;BME280;11115;46.038;14.612;2023-03-31T06:59:41;98137.03;;;10.08;100.00
21902;BME280;11115;46.038;14.612;2023-03-31T07:02:13;98154.56;;;10.03;100.00
21902;BME280;11115;46.038;14.612;2023-03-31T07:04:44;98152.19;;;10.11;100.00
21902;BME280;11115;46.038;14.612;2023-03-31T07:07:14;98158.34;;;10.08;100.00
21902;BME280;11115;46.038;14.612;2023-03-31T07:09:46;98151.88;;;10.12;100.00
21902;BME280;11115;46.038;14.612;2023-03-31T07:12:18;98139.75;;;10.22;100.00
21902;BME280;11115;46.038;14.612;2023-03-31T07:14:56;98150.72;;;10.27;100.00
21902;BME280;11115;46.038;14.612;2023-03-31T07:17:32;98160.50;;;10.33;100.00
21902;BME280;11115;46.038;14.612;2023-03-31T07:20:04;98149.13;;;10.34;100.00
21902;BME280;11115;46.038;14.612;2023-03-31T07:22:51;98138.94;;;10.44;100.00
21902;BME280;11115;46.038;14.612;2023-03-31T07:25:26;98140.78;;;10.57;100.00
21902;BME280;11115;46.038;14.612;2023-03-31T07:28:02;98130.84;;;10.56;100.00
21902;BME280;11115;46.038;14.612;2023-03-31T07:30:36;98105.13;;;10.47;100.00
21902;BME280;11115;46.038;14.612;2023-03-31T07:33:12;98119.06;;;10.73;100.00
21902;BME280;11115;46.038;14.612;2023-03-31T07:35:44;98111.44;;;10.78;100.00
21902;BME280;11115;46.038;14.612;2023-03-31T07:38:38;98105.53;;;11.02;100.00
21902;BME280;11115;46.038;14.612;2023-03-31T07:41:10;98099.66;;;11.04;100.00
21902;BME280;11115;46.038;14.612;2023-03-31T07:43:40;98088.91;;;11.02;100.00
21902;BME280;11115;46.038;14.612;2023-03-31T07:46:21;98082.94;;;11.26;100.00
21902;BME280;11115;46.038;14.612;2023-03-31T07:48:52;98064.56;;;11.39;100.00
21902;BME280;11115;46.038;14.612;2023-03-31T07:51:33;98063.41;;;11.48;100.00
21902;BME280;11115;46.038;14.612;2023-03-31T07:54:05;98055.25;;;11.69;100.00
21902;BME280;11115;46.038;14.612;2023-03-31T07:56:44;98009.13;;;11.73;100.00
21902;BME280;11115;46.038;14.612;2023-03-31T07:59:14;98041.19;;;12.26;100.00
21902;BME280;11115;46.038;14.612;2023-03-31T08:01:54;98041.19;;;12.35;100.00
21902;BME280;11115;46.038;14.612;2023-03-31T08:04:25;98046.81;;;12.56;100.00
21902;BME280;11115;46.038;14.612;2023-03-31T08:06:58;98045.72;;;12.39;100.00
21902;BME280;11115;46.038;14.612;2023-03-31T08:09:26;98036.72;;;12.42;100.00
21902;BME280;11115;46.038;14.612;2023-03-31T08:11:56;98031.50;;;12.41;100.00
21902;BME280;11115;46.038;14.612;2023-03-31T08:14:29;98018.97;;;12.35;100.00
21902;BME280;11115;46.038;14.612;2023-03-31T08:17:17;97948.09;;;12.08;100.00
21902;BME280;11115;46.038;14.612;2023-03-31T08:19:51;97991.00;;;12.49;100.00
21902;BME280;11115;46.038;14.612;2023-03-31T08:22:27;98004.25;;;12.72;100.00
21902;BME280;11115;46.038;14.612;2023-03-31T08:25:03;98003.31;;;12.98;100.00
21902;BME280;11115;46.038;14.612;2023-03-31T08:27:36;98006.88;;;12.77;100.00
21902;BME280;11115;46.038;14.612;2023-03-31T08:30:18;98012.13;;;12.70;100.00
21902;BME280;11115;46.038;14.612;2023-03-31T08:32:50;98001.47;;;12.43;100.00
21902;BME280;11115;46.038;14.612;2023-03-31T08:35:22;98016.16;;;12.43;100.00
21902;BME280;11115;46.038;14.612;2023-03-31T08:37:56;98007.78;;;12.52;100.00
21902;BME280;11115;46.038;14.612;2023-03-31T08:40:34;98007.09;;;12.26;100.00
21902;BME280;11115;46.038;14.612;2023-03-31T08:43:17;98014.88;;;12.32;100.00
21902;BME280;11115;46.038;14.612;2023-03-31T08:45:52;98002.97;;;12.40;100.00
21902;BME280;11115;46.038;14.612;2023-03-31T08:48:56;98005.97;;;12.18;100.00
21902;BME280;11115;46.038;14.612;2023-03-31T08:51:39;98003.34;;;12.22;100.00
21902;BME280;11115;46.038;14.612;2023-03-31T08:57:14;98004.84;;;12.19;100.00
21902;BME280;11115;46.038;14.612;2023-03-31T08:59:43;97995.66;;;12.27;100.00
21902;BME280;11115;46.038;14.612;2023-03-31T09:02:53;97990.50;;;12.08;100.00
21902;BME280;11115;46.038;14.612;2023-03-31T09:08:38;97983.81;;;12.09;100.00
21902;BME280;11115;46.038;14.612;2023-03-31T09:11:49;97974.66;;;12.18;100.00
21902;BME280;11115;46.038;14.612;2023-03-31T09:17:46;97958.50;;;12.20;100.00
21902;BME280;11115;46.038;14.612;2023-03-31T09:20:39;97955.22;;;12.26;100.00
21902;BME280;11115;46.038;14.612;2023-03-31T09:23:50;97943.22;;;12.43;100.00
21902;BME280;11115;46.038;14.612;2023-03-31T09:26:33;97941.41;;;12.47;100.00
21902;BME280;11115;46.038;14.612;2023-03-31T09:29:20;97935.28;;;12.33;100.00
21902;BME280;11115;46.038;14.612;2023-03-31T09:31:58;97940.06;;;12.24;100.00
21902;BME280;11115;46.038;14.612;2023-03-31T09:34:32;97932.06;;;12.22;100.00
21902;BME280;11115;46.038;14.612;2023-03-31T09:37:17;97930.78;;;12.11;100.00
21902;BME280;11115;46.038;14.612;2023-03-31T09:39:55;97936.69;;;12.09;100.00
21902;BME280;11115;46.038;14.612;2023-03-31T09:42:40;97931.31;;;12.04;100.00
21902;BME280;11115;46.038;14.612;2023-03-31T09:45:17;97937.63;;;12.13;100.00
21902;BME280;11115;46.038;14.612;2023-03-31T09:47:56;97929.81;;;12.15;100.00
21902;BME280;11115;46.038;14.612;2023-03-31T09:50:29;97933.91;;;12.09;100.00
21902;BME280;11115;46.038;14.612;2023-03-31T09:53:03;97931.63;;;12.11;100.00
21902;BME280;11115;46.038;14.612;2023-03-31T09:56:05;97927.94;;;11.99;100.00
21902;BME280;11115;46.038;14.612;2023-03-31T09:58:40;97886.56;;;11.76;100.00
21902;BME280;11115;46.038;14.612;2023-03-31T10:01:14;97926.63;;;11.96;100.00
21902;BME280;11115;46.038;14.612;2023-03-31T10:03:51;97931.31;;;12.04;100.00
21902;BME280;11115;46.038;14.612;2023-03-31T10:06:23;97942.75;;;11.94;100.00
21902;BME280;11115;46.038;14.612;2023-03-31T10:09:02;97915.16;;;12.15;100.00
21902;BME280;11115;46.038;14.612;2023-03-31T10:11:35;97922.03;;;12.38;100.00
21902;BME280;11115;46.038;14.612;2023-03-31T10:14:25;97924.34;;;12.36;100.00
21902;BME280;11115;46.038;14.612;2023-03-31T10:17:21;97906.56;;;12.37;100.00
21902;BME280;11115;46.038;14.612;2023-03-31T10:20:51;97908.84;;;12.35;100.00
21902;BME280;11115;46.038;14.612;2023-03-31T10:23:29;97900.84;;;12.34;100.00
21902;BME280;11115;46.038;14.612;2023-03-31T10:26:05;97902.53;;;12.26;100.00
21902;BME280;11115;46.038;14.612;2023-03-31T10:28:38;97888.03;;;12.21;100.00
21902;BME280;11115;46.038;14.612;2023-03-31T10:31:07;97879.59;;;12.17;100.00
21902;BME280;11115;46.038;14.612;2023-03-31T10:33:45;97876.88;;;12.29;100.00
21902;BME280;11115;46.038;14.612;2023-03-31T10:36:28;97880.91;;;12.40;100.00
21902;BME280;11115;46.038;14.612;2023-03-31T10:39:04;97888.13;;;12.33;100.00
21902;BME280;11115;46.038;14.612;2023-03-31T10:41:35;97870.84;;;12.36;100.00
21902;BME280;11115;46.038;14.612;2023-03-31T10:44:04;97876.94;;;12.50;100.00
21902;BME280;11115;46.038;14.612;2023-03-31T10:46:53;97878.56;;;12.72;100.00
21902;BME280;11115;46.038;14.612;2023-03-31T10:49:29;97876.81;;;12.88;100.00
21902;BME280;11115;46.038;14.612;2023-03-31T10:52:01;97865.03;;;12.70;100.00
21902;BME280;11115;46.038;14.612;2023-03-31T10:54:32;97855.03;;;12.57;100.00
21902;BME280;11115;46.038;14.612;2023-03-31T10:57:06;97858.78;;;12.53;100.00
21902;BME280;11115;46.038;14.612;2023-03-31T11:05:43;97833.22;;;12.47;100.00
21902;BME280;11115;46.038;14.612;2023-03-31T11:22:48;97800.97;;;12.13;100.00
21902;BME280;11115;46.038;14.612;2023-03-31T11:25:59;97782.00;;;11.94;100.00
21902;BME280;11115;46.038;14.612;2023-03-31T11:29:00;97809.34;;;12.04;100.00
21902;BME280;11115;46.038;14.612;2023-03-31T11:40:58;97777.47;;;11.90;100.00
21902;BME280;11115;46.038;14.612;2023-03-31T11:43:53;97788.75;;;11.84;100.00
21902;BME280;11115;46.038;14.612;2023-03-31T11:46:35;97774.91;;;11.76;100.00
21902;BME280;11115;46.038;14.612;2023-03-31T11:49:27;97772.19;;;11.67;100.00
21902;BME280;11115;46.038;14.612;2023-03-31T11:52:08;97779.41;;;11.60;100.00
21902;BME280;11115;46.038;14.612;2023-03-31T11:54:54;97774.06;;;11.46;100.00
21902;BME280;11115;46.038;14.612;2023-03-31T12:00:22;97777.38;;;11.39;100.00
21902;BME280;11115;46.038;14.612;2023-03-31T12:03:21;97768.06;;;11.35;100.00
21902;BME280;11115;46.038;14.612;2023-03-31T12:06:12;97770.19;;;11.38;100.00
21902;BME280;11115;46.038;14.612;2023-03-31T12:12:26;97766.56;;;11.46;100.00
21902;BME280;11115;46.038;14.612;2023-03-31T12:17:39;97758.19;;;11.64;100.00
21902;BME280;11115;46.038;14.612;2023-03-31T12:20:17;97754.28;;;11.65;100.00
21902;BME280;11115;46.038;14.612;2023-03-31T12:23:10;97744.41;;;11.76;100.00
21902;BME280;11115;46.038;14.612;2023-03-31T12:26:07;97739.69;;;11.85;100.00
21902;BME280;11115;46.038;14.612;2023-03-31T12:28:44;97730.91;;;12.04;100.00
21902;BME280;11115;46.038;14.612;2023-03-31T12:31:20;97706.69;;;11.92;100.00
21902;BME280;11115;46.038;14.612;2023-03-31T12:34:05;97713.94;;;12.05;100.00
21902;BME280;11115;46.038;14.612;2023-03-31T12:40:16;97700.91;;;12.06;100.00
21902;BME280;11115;46.038;14.612;2023-03-31T12:52:07;97681.81;;;11.83;100.00
21902;BME280;11115;46.038;14.612;2023-03-31T12:58:35;97684.13;;;11.81;100.00
21902;BME280;11115;46.038;14.612;2023-03-31T13:01:21;97683.78;;;11.74;100.00
21902;BME280;11115;46.038;14.612;2023-03-31T13:04:19;97674.78;;;11.86;100.00
21902;BME280;11115;46.038;14.612;2023-03-31T13:06:52;97667.41;;;11.90;100.00
21902;BME280;11115;46.038;14.612;2023-03-31T13:12:18;97646.00;;;11.99;100.00
21902;BME280;11115;46.038;14.612;2023-03-31T13:14:52;97636.06;;;11.98;100.00
21902;BME280;11115;46.038;14.612;2023-03-31T13:17:36;97626.31;;;11.92;100.00
21902;BME280;11115;46.038;14.612;2023-03-31T13:23:21;97623.84;;;11.99;100.00
21902;BME280;11115;46.038;14.612;2023-03-31T13:25:57;97618.53;;;12.06;100.00
21902;BME280;11115;46.038;14.612;2023-03-31T13:28:40;97617.88;;;12.09;100.00
21902;BME280;11115;46.038;14.612;2023-03-31T13:31:13;97609.06;;;12.07;100.00
21902;BME280;11115;46.038;14.612;2023-03-31T13:33:58;97591.75;;;12.10;100.00
21902;BME280;11115;46.038;14.612;2023-03-31T13:36:58;97559.75;;;12.01;100.00
21902;BME280;11115;46.038;14.612;2023-03-31T13:39:58;97571.19;;;12.11;100.00
21902;BME280;11115;46.038;14.612;2023-03-31T13:52:01;97539.78;;;12.07;100.00
21902;BME280;11115;46.038;14.612;2023-03-31T13:57:54;97521.66;;;12.10;100.00
21902;BME280;11115;46.038;14.612;2023-03-31T14:01:17;97526.03;;;12.11;100.00
21902;BME280;11115;46.038;14.612;2023-03-31T14:06:56;97510.69;;;12.13;100.00
21902;BME280;11115;46.038;14.612;2023-03-31T14:09:34;97514.59;;;12.12;100.00
21902;BME280;11115;46.038;14.612;2023-03-31T14:12:34;97508.13;;;12.08;100.00
21902;BME280;11115;46.038;14.612;2023-03-31T14:15:17;97491.72;;;12.03;100.00
21902;BME280;11115;46.038;14.612;2023-03-31T14:17:49;97505.72;;;12.07;100.00
21902;BME280;11115;46.038;14.612;2023-03-31T14:23:34;97491.72;;;12.03;100.00
21902;BME280;11115;46.038;14.612;2023-03-31T14:29:58;97486.25;;;11.95;100.00
21902;BME280;11115;46.038;14.612;2023-03-31T14:33:00;97484.63;;;11.94;100.00
21902;BME280;11115;46.038;14.612;2023-03-31T14:35:56;97482.59;;;12.03;100.00
21902;BME280;11115;46.038;14.612;2023-03-31T14:38:32;97483.72;;;11.90;100.00
21902;BME280;11115;46.038;14.612;2023-03-31T14:41:05;97471.16;;;11.71;100.00
21902;BME280;11115;46.038;14.612;2023-03-31T14:43:46;97479.47;;;11.71;100.00
21902;BME280;11115;46.038;14.612;2023-03-31T14:46:20;97486.97;;;11.71;100.00
21902;BME280;11115;46.038;14.612;2023-03-31T14:49:27;97482.56;;;11.70;100.00
21902;BME280;11115;46.038;14.612;2023-03-31T14:52:16;97485.00;;;11.71;100.00
21902;BME280;11115;46.038;14.612;2023-03-31T14:54:51;97484.53;;;11.69;100.00
21902;BME280;11115;46.038;14.612;2023-03-31T14:57:30;97492.47;;;11.59;100.00
21902;BME280;11115;46.038;14.612;2023-03-31T15:00:03;97482.72;;;11.52;100.00
21902;BME280;11115;46.038;14.612;2023-03-31T15:02:36;97475.31;;;11.44;100.00
21902;BME280;11115;46.038;14.612;2023-03-31T15:05:36;97469.09;;;11.47;100.00
21902;BME280;11115;46.038;14.612;2023-03-31T15:08:18;97447.97;;;11.43;100.00
21902;BME280;11115;46.038;14.612;2023-03-31T15:10:56;97459.63;;;11.48;100.00
21902;BME280;11115;46.038;14.612;2023-03-31T15:13:51;97452.41;;;11.35;100.00
21902;BME280;11115;46.038;14.612;2023-03-31T15:19:21;97454.44;;;11.47;100.00
21902;BME280;11115;46.038;14.612;2023-03-31T15:22:16;97446.84;;;11.56;100.00
21902;BME280;11115;46.038;14.612;2023-03-31T15:24:48;97433.97;;;11.60;100.00
21902;BME280;11115;46.038;14.612;2023-03-31T15:27:35;97439.44;;;11.48;100.00
21902;BME280;11115;46.038;14.612;2023-03-31T15:30:13;97440.59;;;11.47;100.00
21902;BME280;11115;46.038;14.612;2023-03-31T15:32:49;97436.06;;;11.42;100.00
21902;BME280;11115;46.038;14.612;2023-03-31T15:35:35;97443.44;;;11.38;100.00
21902;BME280;11115;46.038;14.612;2023-03-31T15:38:10;97436.59;;;11.36;100.00
21902;BME280;11115;46.038;14.612;2023-03-31T15:40:47;97422.97;;;11.31;100.00
21902;BME280;11115;46.038;14.612;2023-03-31T15:43:31;97423.91;;;11.35;100.00
21902;BME280;11115;46.038;14.612;2023-03-31T15:46:47;97424.19;;;11.42;100.00
21902;BME280;11115;46.038;14.612;2023-03-31T15:49:22;97405.28;;;11.44;100.00
21902;BME280;11115;46.038;14.612;2023-03-31T15:51:54;97408.84;;;11.44;100.00
21902;BME280;11115;46.038;14.612;2023-03-31T15:54:42;97409.56;;;11.53;100.00
21902;BME280;11115;46.038;14.612;2023-03-31T15:57:15;97404.84;;;11.54;100.00
21902;BME280;11115;46.038;14.612;2023-03-31T16:00:04;97401.69;;;11.43;100.00
21902;BME280;11115;46.038;14.612;2023-03-31T16:02:55;97397.44;;;11.46;100.00
21902;BME280;11115;46.038;14.612;2023-03-31T16:05:59;97339.03;;;11.06;100.00
21902;BME280;11115;46.038;14.612;2023-03-31T16:08:55;97393.13;;;11.36;100.00
21902;BME280;11115;46.038;14.612;2023-03-31T16:14:13;97397.47;;;11.25;100.00